Time;durP1;ratioP1;P1;durP2;ratioP2;P2;SDS_P1;SDS_P2;PMS_P1;PMS_P2;Temp;Humidity;BMP_temperature;BMP_pressure;BME280_temperature;BME280_humidity;BME280_pressure;Samples;Min_cycle;Max_cycle;Signal;HPM_P1;HPM_P2
2023/03/10 00:01:26;;;;;;;0.50;0.40;;;;;;;1.38;100.00;98090.25;110406;1270;22165;-67
2023/03/10 00:03:55;;;;;;;0.80;0.40;;;;;;;1.42;100.00;98091.64;110449;1273;22224;-67
2023/03/10 00:06:24;;;;;;;0.90;0.40;;;;;;;1.40;100.00;98088.82;110460;1273;22370;-67
2023/03/10 00:08:53;;;;;;;0.90;0.40;;;;;;;1.38;100.00;98082.42;110399;1266;22269;-67
2023/03/10 00:11:22;;;;;;;0.50;0.40;;;;;;;1.38;100.00;98080.39;110492;1267;22359;-67
2023/03/10 00:13:52;;;;;;;0.70;0.40;;;;;;;1.41;100.00;98080.73;110398;1274;22881;-67
2023/03/10 00:16:26;;;;;;;1.20;0.50;;;;;;;1.37;100.00;98080.59;110441;1273;22900;-67
2023/03/10 00:18:54;;;;;;;0.70;0.40;;;;;;;1.35;100.00;98091.06;110445;1267;23004;-67
2023/03/10 00:21:28;;;;;;;0.60;0.50;;;;;;;1.36;100.00;98096.50;110445;1273;22514;-67
2023/03/10 00:23:56;;;;;;;1.10;0.60;;;;;;;1.33;100.00;98101.24;110457;1274;23070;-67
2023/03/10 00:26:27;;;;;;;1.60;0.70;;;;;;;1.31;100.00;98117.42;110428;1274;22313;-66
2023/03/10 00:28:55;;;;;;;1.50;0.70;;;;;;;1.31;100.00;98121.16;110432;1269;22299;-67
2023/03/10 00:31:25;;;;;;;1.70;0.90;;;;;;;1.21;100.00;98132.05;110429;1268;22199;-66
2023/03/10 00:33:54;;;;;;;1.50;0.60;;;;;;;1.18;100.00;98145.30;110435;1274;22264;-66
2023/03/10 00:36:26;;;;;;;1.00;0.60;;;;;;;1.18;100.00;98155.21;110454;1273;22264;-66
2023/03/10 00:38:55;;;;;;;1.30;0.70;;;;;;;1.17;100.00;98168.39;110418;1267;22460;-66
2023/03/10 00:41:31;;;;;;;1.10;0.70;;;;;;;1.12;100.00;98172.46;110406;1274;22232;-66
2023/03/10 00:44:00;;;;;;;0.60;0.40;;;;;;;1.11;100.00;98181.61;110391;1269;22700;-66
2023/03/10 00:46:28;;;;;;;0.80;0.70;;;;;;;1.08;100.00;98192.08;110463;1273;24650;-67
2023/03/10 00:48:58;;;;;;;1.30;0.60;;;;;;;1.03;100.00;98191.64;110464;1267;22269;-66
2023/03/10 00:51:26;;;;;;;0.80;0.50;;;;;;;1.00;100.00;98194.22;110472;1270;22403;-66
2023/03/10 00:53:55;;;;;;;1.30;0.60;;;;;;;1.00;100.00;98192.19;110444;1267;22378;-66
2023/03/10 00:56:24;;;;;;;1.50;0.70;;;;;;;0.96;100.00;98200.34;110428;1273;22385;-66
2023/03/10 00:58:54;;;;;;;1.90;0.90;;;;;;;0.95;100.00;98211.63;110410;1274;22241;-66
2023/03/10 01:01:26;;;;;;;2.40;0.80;;;;;;;0.99;100.00;98213.08;109061;1274;23082;-66
2023/03/10 01:03:56;;;;;;;2.20;0.70;;;;;;;0.95;100.00;98225.52;107598;1270;22520;-66
2023/03/10 01:06:24;;;;;;;1.10;0.70;;;;;;;0.95;100.00;98221.16;107751;1270;27343;-66
2023/03/10 01:08:54;;;;;;;0.70;0.60;;;;;;;0.96;100.00;98230.34;107484;1267;25362;-66
2023/03/10 01:11:24;;;;;;;0.80;0.50;;;;;;;0.92;100.00;98236.94;107574;1271;25401;-67
2023/03/10 01:13:59;;;;;;;1.10;0.50;;;;;;;0.94;100.00;98249.02;108197;1274;22922;-66
2023/03/10 01:16:28;;;;;;;1.90;0.60;;;;;;;0.92;100.00;98249.80;107745;1267;23276;-66
2023/03/10 01:18:57;;;;;;;1.10;0.60;;;;;;;0.88;100.00;98247.90;107956;1272;22529;-66
2023/03/10 01:21:31;;;;;;;1.20;0.50;;;;;;;0.82;100.00;98255.20;107597;1274;25331;-65
2023/03/10 01:24:00;;;;;;;0.70;0.40;;;;;;;0.84;100.00;98261.40;107656;1269;22636;-65
2023/03/10 01:26:28;;;;;;;1.00;0.60;;;;;;;0.82;100.00;98271.33;107288;1268;22617;-66
2023/03/10 01:28:57;;;;;;;1.60;0.70;;;;;;;0.75;100.00;98269.47;108003;1273;23327;-66
2023/03/10 01:31:26;;;;;;;1.00;0.50;;;;;;;0.74;100.00;98267.09;107535;1261;25495;-66
2023/03/10 01:33:55;;;;;;;1.00;0.50;;;;;;;0.75;100.00;98270.92;107602;1273;26535;-66
2023/03/10 01:36:25;;;;;;;2.20;0.50;;;;;;;0.80;100.00;98266.59;107659;1274;25558;-66
2023/03/10 01:38:54;;;;;;;1.00;0.50;;;;;;;0.80;100.00;98264.88;107749;1270;23323;-66
2023/03/10 01:41:23;;;;;;;0.70;0.50;;;;;;;0.77;100.00;98259.05;108260;1274;22536;-67
2023/03/10 01:43:53;;;;;;;0.90;0.70;;;;;;;0.80;100.00;98275.16;107712;1266;26529;-67
2023/03/10 01:46:40;;;;;;;1.30;0.70;;;;;;;0.79;100.00;98293.36;107687;1273;25484;-66
2023/03/10 01:49:20;;;;;;;1.10;0.80;;;;;;;0.72;100.00;98289.87;110365;1274;23328;-67
2023/03/10 01:51:50;;;;;;;1.30;0.70;;;;;;;0.63;100.00;98297.18;110467;1273;22218;-67
2023/03/10 01:54:22;;;;;;;1.80;1.10;;;;;;;0.64;100.00;98308.81;110329;1274;22418;-67
2023/03/10 01:56:50;;;;;;;2.20;1.00;;;;;;;0.62;100.00;98319.27;110449;1268;22261;-66
2023/03/10 01:59:18;;;;;;;2.20;1.00;;;;;;;0.60;100.00;98323.58;110388;1270;22203;-67
2023/03/10 02:01:49;;;;;;;1.60;1.00;;;;;;;0.62;100.00;98334.90;110308;1274;22203;-67
2023/03/10 02:04:22;;;;;;;1.90;0.90;;;;;;;0.64;100.00;98342.60;110417;1274;23141;-67
2023/03/10 02:06:50;;;;;;;1.50;1.10;;;;;;;0.61;100.00;98350.10;110137;1271;22592;-68
2023/03/10 02:09:20;;;;;;;2.00;1.00;;;;;;;0.54;100.00;98353.95;110211;1267;22985;-67
2023/03/10 02:11:48;;;;;;;2.10;0.90;;;;;;;0.48;100.00;98368.84;109051;1274;23264;-67
2023/03/10 02:14:18;;;;;;;1.90;1.00;;;;;;;0.44;100.00;98371.44;107998;1273;27282;-67
2023/03/10 02:16:47;;;;;;;1.40;0.80;;;;;;;0.40;100.00;98371.47;107739;1267;25312;-67
2023/03/10 02:19:40;;;;;;;1.20;0.70;;;;;;;0.35;100.00;98380.20;107607;1274;22666;-67
2023/03/10 02:22:11;;;;;;;1.60;0.80;;;;;;;0.27;100.00;98386.23;107618;1274;23201;-67
2023/03/10 02:24:42;;;;;;;1.40;0.90;;;;;;;0.26;100.00;98391.34;107349;1275;22541;-66
2023/03/10 02:27:30;;;;;;;1.10;0.60;;;;;;;0.23;100.00;98397.52;108169;1273;22586;-67
2023/03/10 02:30:10;;;;;;;1.50;0.60;;;;;;;0.17;100.00;98397.20;107733;1274;22520;-67
2023/03/10 02:32:45;;;;;;;1.80;0.90;;;;;;;0.17;100.00;98402.98;107448;1273;23754;-68
2023/03/10 02:35:13;;;;;;;1.20;0.70;;;;;;;0.12;100.00;98409.78;110340;1273;22261;-65
2023/03/10 02:37:50;;;;;;;2.40;1.30;;;;;;;0.12;100.00;98410.05;110472;1274;22281;-66
2023/03/10 02:40:36;;;;;;;1.10;0.70;;;;;;;0.11;100.00;98410.89;110388;1274;22258;-66
2023/03/10 02:43:31;;;;;;;1.10;0.70;;;;;;;0.07;100.00;98402.19;110378;1267;23319;-66
2023/03/10 02:46:10;;;;;;;2.10;0.90;;;;;;;0.01;100.00;98402.44;110428;1275;22197;-66
2023/03/10 02:48:41;;;;;;;1.10;0.80;;;;;;;0.06;100.00;98408.54;110245;1273;22469;-66
2023/03/10 02:51:17;;;;;;;2.90;0.80;;;;;;;0.04;100.00;98407.90;110397;1274;22185;-66
2023/03/10 02:53:45;;;;;;;1.60;0.90;;;;;;;0.00;100.00;98411.09;110383;1267;23319;-66
2023/03/10 02:56:14;;;;;;;3.40;0.90;;;;;;;0.03;100.00;98417.67;110352;1267;22442;-66
2023/03/10 02:58:43;;;;;;;1.00;0.60;;;;;;;0.04;100.00;98422.73;110425;1273;22319;-67
2023/03/10 03:01:12;;;;;;;2.50;1.50;;;;;;;0.05;100.00;98427.18;110422;1274;22272;-66
2023/03/10 03:03:41;;;;;;;1.70;1.10;;;;;;;0.09;100.00;98440.53;110423;1273;22218;-66
2023/03/10 03:06:10;;;;;;;1.60;0.90;;;;;;;0.08;100.00;98442.98;110163;1274;22346;-68
2023/03/10 03:08:40;;;;;;;2.20;0.90;;;;;;;0.07;100.00;98448.44;109298;1267;22590;-69
2023/03/10 03:11:10;;;;;;;1.70;1.00;;;;;;;0.02;100.00;98456.06;107611;1273;23701;-69
2023/03/10 03:13:38;;;;;;;1.90;0.90;;;;;;;-0.01;100.00;98462.30;107660;1274;22917;-68
2023/03/10 03:16:07;;;;;;;2.30;1.10;;;;;;;-0.01;100.00;98464.36;107640;1274;22579;-66
2023/03/10 03:18:37;;;;;;;2.10;0.80;;;;;;;-0.03;100.00;98466.67;110494;1274;22364;-67
2023/03/10 03:21:09;;;;;;;2.00;0.70;;;;;;;-0.07;100.00;98466.80;110429;1274;22174;-67
2023/03/10 03:23:39;;;;;;;1.70;0.80;;;;;;;-0.05;100.00;98471.98;110441;1269;22198;-67
2023/03/10 03:26:15;;;;;;;2.10;0.80;;;;;;;0.02;100.00;98477.17;110439;1275;22217;-66
2023/03/10 03:28:44;;;;;;;3.60;1.20;;;;;;;0.00;100.00;98481.62;110438;1269;22762;-66
2023/03/10 03:31:15;;;;;;;2.60;1.00;;;;;;;-0.04;100.00;98479.60;110246;1274;22288;-66
2023/03/10 03:33:43;;;;;;;3.20;1.10;;;;;;;-0.03;100.00;98488.77;110240;1274;22479;-67
2023/03/10 03:36:12;;;;;;;3.40;1.10;;;;;;;-0.03;100.00;98492.36;110499;1271;22443;-67
2023/03/10 03:38:41;;;;;;;2.10;0.90;;;;;;;-0.08;100.00;98496.89;110431;1274;22451;-66
2023/03/10 03:41:09;;;;;;;2.40;1.10;;;;;;;-0.06;100.00;98504.33;110395;1274;22436;-67
2023/03/10 03:43:38;;;;;;;2.40;1.10;;;;;;;-0.05;100.00;98517.67;110357;1268;22349;-66
2023/03/10 03:46:11;;;;;;;2.00;1.00;;;;;;;-0.08;100.00;98521.46;107386;1274;25346;-66
2023/03/10 03:48:40;;;;;;;2.60;1.20;;;;;;;-0.08;100.00;98520.23;107378;1267;22622;-66
2023/03/10 03:51:08;;;;;;;2.70;1.20;;;;;;;-0.02;100.00;98516.88;107560;1268;25908;-66
2023/03/10 03:53:40;;;;;;;2.80;1.60;;;;;;;-0.03;100.00;98515.36;108750;1266;23405;-66
2023/03/10 03:56:08;;;;;;;3.50;1.70;;;;;;;-0.00;100.00;98524.84;107665;1273;25408;-66
2023/03/10 03:58:39;;;;;;;2.80;1.10;;;;;;;0.03;100.00;98524.38;107755;1274;23349;-65
2023/03/10 04:01:08;;;;;;;4.80;1.50;;;;;;;0.01;100.00;98518.45;107640;1271;26178;-65
2023/03/10 04:03:41;;;;;;;2.70;1.40;;;;;;;-0.06;100.00;98520.44;108410;1272;23303;-66
2023/03/10 04:06:11;;;;;;;2.70;1.50;;;;;;;-0.11;100.00;98521.61;107512;1274;22510;-67
2023/03/10 04:08:40;;;;;;;3.70;1.20;;;;;;;-0.10;100.00;98520.73;107607;1273;25332;-67
2023/03/10 04:11:09;;;;;;;1.90;1.00;;;;;;;-0.09;100.00;98517.58;107708;1274;25443;-66
2023/03/10 04:13:40;;;;;;;3.10;1.10;;;;;;;-0.12;100.00;98521.42;107556;1273;22664;-67
2023/03/10 04:16:10;;;;;;;2.40;1.10;;;;;;;-0.09;100.00;98533.43;107620;1274;25340;-66
2023/03/10 04:18:39;;;;;;;2.50;1.30;;;;;;;-0.07;100.00;98538.80;107520;1275;22751;-66
2023/03/10 04:21:07;;;;;;;3.60;1.20;;;;;;;-0.09;100.00;98537.09;107597;1269;22601;-66
2023/03/10 04:23:36;;;;;;;2.60;1.50;;;;;;;-0.13;100.00;98536.21;107437;1275;22858;-66
2023/03/10 04:26:10;;;;;;;3.10;1.20;;;;;;;-0.15;100.00;98530.65;107470;1275;23684;-66
2023/03/10 04:28:39;;;;;;;2.20;1.20;;;;;;;-0.12;100.00;98538.87;110388;1270;22925;-67
2023/03/10 04:31:14;;;;;;;2.50;1.20;;;;;;;-0.10;100.00;98545.38;110313;1275;22194;-67
2023/03/10 04:33:48;;;;;;;3.00;1.40;;;;;;;-0.12;100.00;98550.67;110301;1276;22196;-67
2023/03/10 04:36:18;;;;;;;4.80;1.70;;;;;;;-0.14;100.00;98547.80;110231;1270;22335;-67
2023/03/10 04:38:50;;;;;;;3.30;1.40;;;;;;;-0.12;100.00;98543.47;110365;1275;22217;-67
2023/03/10 04:41:21;;;;;;;3.20;1.50;;;;;;;-0.07;100.00;98544.25;110213;1274;22404;-67
2023/03/10 04:43:54;;;;;;;3.00;1.80;;;;;;;-0.11;100.00;98545.08;110266;1275;22339;-68
2023/03/10 04:46:23;;;;;;;3.70;1.80;;;;;;;-0.11;100.00;98544.16;110308;1273;22214;-67
2023/03/10 04:48:54;;;;;;;4.10;1.80;;;;;;;-0.08;100.00;98539.66;110331;1271;22297;-67
2023/03/10 04:51:22;;;;;;;4.40;1.90;;;;;;;-0.08;100.00;98537.13;108909;1269;24222;-67
2023/03/10 04:53:52;;;;;;;5.50;2.20;;;;;;;-0.15;100.00;98542.96;107999;1269;22642;-67
2023/03/10 04:56:21;;;;;;;6.00;2.40;;;;;;;-0.13;100.00;98543.28;107421;1270;27132;-67
2023/03/10 04:58:50;;;;;;;6.80;2.90;;;;;;;-0.08;100.00;98540.98;107906;1273;23824;-67
2023/03/10 05:01:18;;;;;;;8.50;3.00;;;;;;;-0.07;100.00;98539.77;107405;1276;22563;-67
2023/03/10 05:03:51;;;;;;;5.00;2.70;;;;;;;-0.08;100.00;98542.21;107431;1275;25321;-67
2023/03/10 05:06:20;;;;;;;6.90;2.80;;;;;;;-0.07;100.00;98547.21;108946;1275;25321;-67
2023/03/10 05:09:01;;;;;;;7.80;3.20;;;;;;;-0.08;100.00;98550.04;107514;1271;25363;-67
2023/03/10 05:11:30;;;;;;;6.50;3.00;;;;;;;-0.10;100.00;98552.86;107354;1271;22544;-67
2023/03/10 05:13:59;;;;;;;7.80;2.90;;;;;;;-0.10;100.00;98551.58;109975;1271;22529;-67
2023/03/10 05:16:31;;;;;;;6.50;3.00;;;;;;;-0.15;100.00;98560.77;110304;1269;22192;-67
2023/03/10 05:19:01;;;;;;;4.70;2.60;;;;;;;-0.16;100.00;98567.21;110308;1275;22640;-68
2023/03/10 05:21:30;;;;;;;6.00;2.80;;;;;;;-0.13;100.00;98567.73;110335;1276;22220;-67
2023/03/10 05:24:00;;;;;;;7.30;2.90;;;;;;;-0.10;100.00;98573.48;110393;1273;23421;-67
2023/03/10 05:26:29;;;;;;;5.40;2.50;;;;;;;-0.07;100.00;98585.62;110394;1276;22427;-67
2023/03/10 05:29:02;;;;;;;6.60;2.40;;;;;;;-0.06;100.00;98594.00;110294;1276;22192;-67
2023/03/10 05:31:38;;;;;;;3.90;1.80;;;;;;;-0.04;100.00;98593.46;110393;1273;22179;-67
2023/03/10 05:37:17;;;;;;;4.20;2.10;;;;;;;-0.02;100.00;98591.21;104267;1308;545173;-66
2023/03/10 05:39:46;;;;;;;3.10;1.60;;;;;;;-0.03;100.00;98605.27;106466;1289;23094;-66
2023/03/10 05:42:18;;;;;;;3.60;1.80;;;;;;;0.03;100.00;98607.32;106665;1288;22813;-66
2023/03/10 05:44:47;;;;;;;3.30;1.60;;;;;;;0.03;100.00;98607.86;106496;1283;22609;-65
2023/03/10 05:47:17;;;;;;;3.80;1.90;;;;;;;0.05;100.00;98609.35;106652;1286;22529;-66
2023/03/10 05:49:48;;;;;;;4.50;1.50;;;;;;;0.15;100.00;98609.49;106747;1287;1355774;-67
2023/03/10 05:52:23;;;;;;;2.50;1.50;;;;;;;0.25;100.00;98614.00;106619;1285;25418;-65
2023/03/10 05:54:52;;;;;;;4.90;1.50;;;;;;;0.26;100.00;98614.73;109515;1280;23137;-66
2023/03/10 05:57:20;;;;;;;2.90;1.50;;;;;;;0.33;100.00;98620.18;109617;1286;22207;-66
2023/03/10 05:59:49;;;;;;;3.80;1.50;;;;;;;0.40;100.00;98622.80;109647;1280;22192;-66
2023/03/10 06:02:17;;;;;;;2.90;1.30;;;;;;;0.47;100.00;98621.08;109498;1282;22327;-66
2023/03/10 06:04:46;;;;;;;3.00;1.80;;;;;;;0.47;100.00;98632.62;109591;1285;22379;-67
2023/03/10 06:07:16;;;;;;;4.60;2.00;;;;;;;0.40;100.00;98638.08;109656;1287;22410;-67
2023/03/10 06:09:45;;;;;;;4.00;2.20;;;;;;;0.44;100.00;98632.64;109578;1279;22301;-68
2023/03/10 06:12:13;;;;;;;3.60;1.70;;;;;;;0.59;100.00;98628.36;110085;1276;22248;-69
2023/03/10 06:14:44;;;;;;;4.00;1.60;;;;;;;0.68;100.00;98623.91;110107;1279;22256;-69
2023/03/10 06:17:12;;;;;;;5.30;2.00;;;;;;;0.68;100.00;98624.81;110124;1279;22310;-68
2023/03/10 06:19:41;;;;;;;4.30;2.10;;;;;;;0.73;100.00;98639.13;109955;1276;22270;-68
2023/03/10 06:22:10;;;;;;;4.70;1.70;;;;;;;0.86;100.00;98639.14;110105;1280;22333;-67
2023/03/10 06:24:39;;;;;;;3.50;1.50;;;;;;;0.99;100.00;98637.65;110087;1276;22393;-67
2023/03/10 06:27:08;;;;;;;4.20;1.70;;;;;;;1.05;100.00;98625.44;108382;1279;22544;-67
2023/03/10 06:29:37;;;;;;;3.00;1.30;;;;;;;1.12;100.00;98623.06;107018;1279;22668;-67
2023/03/10 06:32:08;;;;;;;2.50;1.20;;;;;;;1.17;100.00;98622.42;107145;1256;23973;-68
2023/03/10 06:34:37;;;;;;;4.40;1.70;;;;;;;1.36;100.00;98617.69;106929;1279;25359;-68
2023/03/10 06:37:07;;;;;;;3.70;1.80;;;;;;;1.54;100.00;98601.61;107064;1279;22588;-67
2023/03/10 06:39:39;;;;;;;4.50;2.30;;;;;;;1.65;100.00;98579.58;107122;1272;22774;-68
2023/03/10 06:42:07;;;;;;;4.90;2.50;;;;;;;1.81;100.00;98570.42;107231;1279;22587;-67
2023/03/10 06:44:36;;;;;;;6.60;2.50;;;;;;;2.02;100.00;98572.89;108020;1279;23623;-68
2023/03/10 06:47:05;;;;;;;3.90;2.10;;;;;;;2.14;100.00;98581.95;107270;1279;25351;-67
2023/03/10 06:49:34;;;;;;;3.40;1.90;;;;;;;2.22;100.00;98590.88;107289;1279;22526;-68
2023/03/10 06:52:03;;;;;;;4.30;2.10;;;;;;;2.28;100.00;98601.06;107223;1279;23867;-68
2023/03/10 06:54:33;;;;;;;4.90;2.30;;;;;;;2.07;100.00;98591.50;107183;1279;25379;-68
2023/03/10 06:57:01;;;;;;;3.80;2.00;;;;;;;1.86;100.00;98592.56;107337;1277;25346;-68
2023/03/10 06:59:32;;;;;;;3.50;2.00;;;;;;;1.88;100.00;98597.31;107022;1279;25369;-67
2023/03/10 07:02:01;;;;;;;2.80;1.80;;;;;;;1.93;100.00;98613.25;108046;1279;22618;-67
2023/03/10 07:04:29;;;;;;;4.70;2.00;;;;;;;1.91;100.00;98622.43;107443;1279;23238;-67
2023/03/10 07:07:06;;;;;;;;;;;;;;;1.92;100.00;98611.56;107379;1279;23202;-68
2023/03/10 07:09:35;;;;;;;3.90;2.80;;;;;;;1.95;100.00;98620.67;107357;1279;25430;-67
2023/03/10 07:12:04;;;;;;;3.70;2.40;;;;;;;1.90;100.00;98651.68;107300;1277;26500;-67
2023/03/10 07:14:34;;;;;;;4.60;2.30;;;;;;;1.86;100.00;98673.19;107603;1279;22917;-68
2023/03/10 07:17:02;;;;;;;3.10;2.20;;;;;;;1.84;100.00;98675.39;107180;1279;22593;-67
2023/03/10 07:19:31;;;;;;;3.60;2.30;;;;;;;1.79;100.00;98677.39;107048;1273;22997;-67
2023/03/10 07:21:59;;;;;;;4.80;2.60;;;;;;;1.77;100.00;98666.73;107244;1274;25383;-67
2023/03/10 07:24:29;;;;;;;4.30;2.40;;;;;;;1.78;100.00;98673.99;107003;1273;22514;-68
2023/03/10 07:27:00;;;;;;;5.50;2.50;;;;;;;1.83;100.00;98679.57;107074;1276;22542;-68
2023/03/10 07:29:30;;;;;;;6.50;2.30;;;;;;;1.92;100.00;98680.69;107173;1279;24931;-67
2023/03/10 07:31:59;;;;;;;4.50;2.50;;;;;;;1.94;100.00;98670.64;107449;1279;25376;-67
2023/03/10 07:34:28;;;;;;;4.60;2.30;;;;;;;1.92;100.00;98668.02;109881;1280;22921;-68
2023/03/10 07:37:01;;;;;;;4.80;2.40;;;;;;;1.91;100.00;98663.98;110087;1274;22216;-68
2023/03/10 07:39:30;;;;;;;4.90;2.40;;;;;;;1.88;100.00;98662.86;110012;1277;22220;-68
2023/03/10 07:41:58;;;;;;;4.60;2.70;;;;;;;1.84;100.00;98660.42;110128;1279;22236;-68
2023/03/10 07:44:27;;;;;;;4.60;2.50;;;;;;;1.87;100.00;98655.95;110046;1279;22228;-68
2023/03/10 07:46:55;;;;;;;3.90;2.50;;;;;;;1.92;100.00;98663.77;110021;1277;22331;-67
2023/03/10 07:49:23;;;;;;;5.60;3.10;;;;;;;1.87;100.00;98666.06;110070;1279;22207;-65
2023/03/10 07:51:51;;;;;;;4.70;2.70;;;;;;;1.77;100.00;98667.54;110076;1279;22218;-66
2023/03/10 07:54:20;;;;;;;5.60;2.70;;;;;;;1.75;100.00;98665.23;109910;1277;23241;-67
2023/03/10 07:56:48;;;;;;;4.00;2.50;;;;;;;1.82;100.00;98672.14;107380;1279;25226;-66
2023/03/10 07:59:18;;;;;;;5.60;2.80;;;;;;;1.93;100.00;98672.44;107482;1272;23132;-67
2023/03/10 08:01:49;;;;;;;5.50;3.10;;;;;;;2.04;100.00;98672.73;107420;1277;24931;-66
2023/03/10 08:04:18;;;;;;;6.20;3.30;;;;;;;2.05;100.00;98684.60;107529;1278;22547;-67
2023/03/10 08:06:46;;;;;;;7.80;4.70;;;;;;;2.06;100.00;98679.87;107170;1279;22569;-66
2023/03/10 08:09:17;;;;;;;7.50;4.00;;;;;;;2.07;100.00;98672.41;109689;1273;23114;-66
2023/03/10 08:11:48;;;;;;;6.40;3.40;;;;;;;2.19;100.00;98674.08;110113;1274;22229;-67
2023/03/10 08:14:18;;;;;;;14.60;9.50;;;;;;;2.43;100.00;98674.66;110064;1279;22424;-67
2023/03/10 08:16:48;;;;;;;11.10;6.70;;;;;;;2.60;100.00;98680.15;110018;1280;22237;-67
2023/03/10 08:19:16;;;;;;;7.60;5.30;;;;;;;2.61;100.00;98679.10;110002;1272;22283;-67
2023/03/10 08:21:45;;;;;;;10.20;5.30;;;;;;;2.62;100.00;98661.84;110049;1273;23089;-67
2023/03/10 08:24:14;;;;;;;8.00;5.20;;;;;;;2.67;100.00;98642.42;110058;1279;22332;-66
2023/03/10 08:26:44;;;;;;;7.00;5.00;;;;;;;2.78;100.00;98644.14;110059;1277;22278;-67
2023/03/10 08:29:17;;;;;;;21.60;13.60;;;;;;;2.88;100.00;98645.29;110033;1273;22382;-67
2023/03/10 08:31:45;;;;;;;23.10;15.00;;;;;;;2.93;100.00;98639.89;110026;1274;22262;-67
2023/03/10 08:34:14;;;;;;;15.30;7.80;;;;;;;3.01;100.00;98635.99;110063;1273;22826;-67
2023/03/10 08:36:43;;;;;;;15.20;8.70;;;;;;;3.09;100.00;98639.16;110065;1275;22277;-68
2023/03/10 08:39:11;;;;;;;11.80;7.40;;;;;;;3.21;100.00;98633.77;110130;1279;22336;-67
2023/03/10 08:41:47;;;;;;;51.70;30.10;;;;;;;3.25;100.00;98633.02;109925;1279;22275;-67
2023/03/10 08:44:17;;;;;;;;;;;;;;;3.24;100.00;98629.08;109893;1279;23223;-67
2023/03/10 08:46:46;;;;;;;33.10;19.90;;;;;;;3.22;100.00;98619.69;109999;1277;22434;-67
2023/03/10 08:49:16;;;;;;;43.90;24.00;;;;;;;3.22;100.00;98611.25;110027;1274;23269;-67
2023/03/10 08:51:45;;;;;;;15.20;9.50;;;;;;;3.33;100.00;98616.86;110057;1274;22312;-67
2023/03/10 08:54:16;;;;;;;9.40;7.00;;;;;;;3.37;100.00;98623.54;110048;1279;22869;-67
2023/03/10 08:56:44;;;;;;;12.50;8.80;;;;;;;3.33;100.00;98628.59;110074;1273;22436;-67
2023/03/10 08:59:13;;;;;;;11.10;7.10;;;;;;;3.33;100.00;98629.29;110071;1272;22284;-67
2023/03/10 09:01:41;;;;;;;8.00;6.10;;;;;;;3.47;100.00;98621.05;110100;1277;22289;-67
2023/03/10 09:04:10;;;;;;;10.70;6.50;;;;;;;3.53;100.00;98612.67;110101;1279;23040;-68
2023/03/10 09:06:38;;;;;;;8.10;5.60;;;;;;;3.54;100.00;98610.16;110134;1279;22217;-68
2023/03/10 09:09:07;;;;;;;10.10;6.60;;;;;;;3.64;100.00;98618.80;109964;1277;22194;-68
2023/03/10 09:11:36;;;;;;;8.20;5.70;;;;;;;3.65;100.00;98630.55;110005;1273;22352;-68
2023/03/10 09:14:07;;;;;;;8.20;5.20;;;;;;;3.68;100.00;98631.13;110105;1277;22252;-67
2023/03/10 09:16:38;;;;;;;6.80;4.80;;;;;;;3.85;100.00;98626.34;110121;1279;23118;-68
2023/03/10 09:19:06;;;;;;;8.60;5.60;;;;;;;3.89;100.00;98626.33;110123;1279;22267;-68
2023/03/10 09:21:35;;;;;;;8.90;5.20;;;;;;;3.94;100.00;98627.49;110024;1273;22360;-67
2023/03/10 09:24:03;;;;;;;7.90;4.80;;;;;;;4.04;100.00;98629.38;110106;1279;22462;-68
2023/03/10 09:26:33;;;;;;;6.70;5.00;;;;;;;4.18;100.00;98622.42;110132;1274;22216;-66
2023/03/10 09:29:03;;;;;;;10.00;4.50;;;;;;;4.33;100.00;98626.27;110103;1279;22818;-66
2023/03/10 09:31:34;;;;;;;7.00;4.30;;;;;;;4.40;100.00;98624.41;110154;1279;22882;-66
2023/03/10 09:34:05;;;;;;;6.50;4.30;;;;;;;4.49;100.00;98621.79;110126;1279;22231;-66
2023/03/10 09:36:36;;;;;;;8.30;4.90;;;;;;;4.51;100.00;98607.03;110127;1279;23030;-66
2023/03/10 09:39:05;;;;;;;7.20;4.40;;;;;;;4.64;100.00;98588.02;110138;1279;22554;-66
2023/03/10 09:42:06;;;;;;;5.90;4.20;;;;;;;4.73;100.00;98576.43;110141;1279;23059;-66
2023/03/10 09:44:42;;;;;;;6.80;4.40;;;;;;;4.65;100.00;98596.89;109976;1279;22791;-66
2023/03/10 09:47:28;;;;;;;5.50;4.10;;;;;;;4.66;100.00;98608.91;109876;1277;22354;-65
2023/03/10 09:50:15;;;;;;;6.50;4.10;;;;;;;4.70;100.00;98614.60;110032;1280;22576;-68
2023/03/10 09:52:51;;;;;;;9.70;4.60;;;;;;;4.74;100.00;98608.79;110000;1280;23105;-67
2023/03/10 09:55:26;;;;;;;7.50;4.50;;;;;;;4.75;100.00;98607.66;109962;1277;23025;-67
2023/03/10 09:57:55;;;;;;;9.90;4.60;;;;;;;4.61;100.00;98618.81;110011;1280;22278;-67
2023/03/10 10:00:36;;;;;;;7.40;4.60;;;;;;;4.42;100.00;98615.98;110015;1280;22212;-66
2023/03/10 10:03:14;;;;;;;8.50;4.80;;;;;;;4.22;100.00;98626.71;109948;1280;22268;-67
2023/03/10 10:05:44;;;;;;;7.00;4.20;;;;;;;4.16;100.00;98626.02;110064;1273;22324;-66
2023/03/10 10:08:19;;;;;;;6.40;4.40;;;;;;;4.26;100.00;98616.94;109989;1279;23038;-66
2023/03/10 10:10:55;;;;;;;6.10;4.50;;;;;;;4.38;100.00;98603.86;110172;1279;22205;-67
2023/03/10 10:13:26;;;;;;;10.90;5.30;;;;;;;4.43;100.00;98596.20;110155;1279;22400;-67
2023/03/10 10:16:01;;;;;;;8.50;5.30;;;;;;;4.44;100.00;98588.66;110153;1279;22285;-67
2023/03/10 10:19:21;;;;;;;9.70;6.00;;;;;;;4.41;100.00;98570.11;110023;1279;22203;-67
2023/03/10 10:21:59;;;;;;;9.20;5.00;;;;;;;4.40;100.00;98566.02;110091;1279;23017;-67
2023/03/10 10:24:29;;;;;;;8.90;5.50;;;;;;;4.45;100.00;98564.79;110097;1279;22291;-66
2023/03/10 10:26:58;;;;;;;7.90;5.40;;;;;;;4.40;100.00;98577.00;110119;1279;22277;-66
2023/03/10 10:29:31;;;;;;;9.20;5.50;;;;;;;4.39;100.00;98575.48;110125;1276;22433;-65
2023/03/10 10:32:06;;;;;;;8.30;5.70;;;;;;;4.40;100.00;98565.30;110003;1279;22199;-66
2023/03/10 10:34:35;;;;;;;9.40;5.60;;;;;;;4.43;100.00;98563.33;110154;1279;22208;-66
2023/03/10 10:37:34;;;;;;;6.10;4.60;;;;;;;4.57;100.00;98568.52;110154;1279;22270;-66
2023/03/10 10:40:24;;;;;;;7.40;4.10;;;;;;;4.73;100.00;98581.89;109906;1280;22239;-67
2023/03/10 10:42:54;;;;;;;7.70;4.50;;;;;;;4.77;100.00;98592.73;110116;1279;22300;-66
2023/03/10 10:45:24;;;;;;;6.40;4.20;;;;;;;4.83;100.00;98598.80;110140;1279;22308;-66
2023/03/10 10:47:54;;;;;;;6.50;4.10;;;;;;;4.85;100.00;98589.27;110150;1277;22413;-66
2023/03/10 10:50:22;;;;;;;5.70;4.10;;;;;;;4.84;100.00;98584.41;110039;1280;22405;-67
2023/03/10 10:53:09;;;;;;;6.60;4.40;;;;;;;4.77;100.00;98580.52;109993;1280;22253;-66
2023/03/10 10:55:40;;;;;;;5.60;3.80;;;;;;;4.72;100.00;98583.83;110018;1280;22241;-67
2023/03/10 10:58:27;;;;;;;7.90;4.20;;;;;;;4.68;100.00;98579.59;109939;1280;22260;-66
2023/03/10 11:01:05;;;;;;;7.10;4.70;;;;;;;4.71;100.00;98575.03;110096;1279;22326;-66
2023/03/10 11:03:46;;;;;;;7.40;5.00;;;;;;;4.70;100.00;98570.39;110142;1279;22265;-66
2023/03/10 11:06:26;;;;;;;6.80;5.10;;;;;;;4.67;100.00;98572.73;110003;1279;22874;-66
2023/03/10 11:09:16;;;;;;;7.20;4.20;;;;;;;4.77;100.00;98568.15;110115;1279;22230;-67
2023/03/10 11:11:48;;;;;;;6.50;4.00;;;;;;;4.85;100.00;98556.33;110012;1279;22420;-67
2023/03/10 11:14:48;;;;;;;6.20;3.90;;;;;;;4.90;100.00;98550.85;110145;1279;22225;-66
2023/03/10 11:17:37;;;;;;;7.10;4.60;;;;;;;4.93;100.00;98553.13;109717;1279;23662;-66
2023/03/10 11:20:22;;;;;;;6.40;5.00;;;;;;;4.87;100.00;98552.89;110000;1279;22195;-66
2023/03/10 11:22:59;;;;;;;5.60;4.10;;;;;;;4.88;100.00;98542.21;110171;1279;22230;-66
2023/03/10 11:25:48;;;;;;;6.60;4.40;;;;;;;4.91;100.00;98545.84;110161;1279;22215;-66
2023/03/10 11:28:37;;;;;;;7.10;4.50;;;;;;;4.93;100.00;98548.75;109927;1279;22315;-66
2023/03/10 11:31:31;;;;;;;6.30;4.40;;;;;;;4.97;100.00;98558.37;110077;1279;22590;-67
2023/03/10 11:34:24;;;;;;;5.50;3.90;;;;;;;5.06;100.00;98564.60;109931;1280;23030;-66
2023/03/10 11:37:03;;;;;;;5.40;3.60;;;;;;;5.17;100.00;98559.94;109986;1273;22435;-66
2023/03/10 11:40:06;;;;;;;5.60;3.90;;;;;;;5.16;100.00;98557.53;110085;1274;23483;-66
2023/03/10 11:42:47;;;;;;;7.40;4.10;;;;;;;5.12;100.00;98556.97;109801;1279;22270;-66
2023/03/10 11:45:53;;;;;;;5.70;3.90;;;;;;;5.11;100.00;98553.61;110006;1279;22264;-66
2023/03/10 11:48:43;;;;;;;6.10;4.10;;;;;;;5.17;100.00;98555.38;110079;1279;23017;-66
2023/03/10 11:51:17;;;;;;;6.10;4.40;;;;;;;5.28;100.00;98552.38;110308;1275;22366;-66